Terminal Aerodrome Forecast
Issued by NWS

Home | Current Version | Previous Version | Text Only | Print | Product List | Glossary On
Versions: 1 2 3 4 5 6 7 8 9 10 11 12 13 14 15 16 17 18 19 20 21 22 23 24 25 26 27 28 29 30 31 32 33 34 35 36 37 38 39 40 41 42 43 44 45 46 47 48 49 50
000
FTUS45 KSLC 240520
TAFEVW
TAF
KEVW 240520Z 2406/2506 26004KT P6SM VCSH BKN025 BKN050
     FM241000 22006KT P6SM SCT040 BKN080
     FM241800 29009KT P6SM VCSH SCT030 BKN060
     FM250300 23006KT P6SM SCT060 BKN120=

USA.gov is the U.S. government's official web portal to all federal, state and local government web resources and services.